Time;durP1;ratioP1;P1;durP2;ratioP2;P2;SDS_P1;SDS_P2;PMS_P1;PMS_P2;Temp;Humidity;BMP_temperature;BMP_pressure;BME280_temperature;BME280_humidity;BME280_pressure;Samples;Min_cycle;Max_cycle;Signal;HPM_P1;HPM_P2
2022/10/12 00:08:49;;;;;;;24.80;11.80;;;;;;;8.20;85.25;101273.05;640868;1295;140563;-82
2022/10/12 00:23:59;;;;;;;51.00;19.60;;;;;;;8.50;84.75;101280.63;640910;1295;139772;-82
2022/10/12 00:39:05;;;;;;;156.50;65.10;;;;;;;8.61;84.70;101291.46;639841;1294;139597;-82
2022/10/12 00:54:13;;;;;;;29.20;15.10;;;;;;;8.61;86.25;101298.27;639592;1291;1342177;-82
2022/10/12 01:09:18;;;;;;;47.40;18.50;;;;;;;8.62;87.33;101299.09;640139;1295;140904;-81
2022/10/12 01:24:43;;;;;;;26.60;10.90;;;;;;;8.68;88.35;101303.44;640405;1288;140468;-82
2022/10/12 01:39:53;;;;;;;21.10;10.50;;;;;;;8.75;87.93;101295.29;641376;1288;140616;-82
2022/10/12 01:55:16;;;;;;;59.50;18.50;;;;;;;8.92;88.05;101295.99;642044;1288;140457;-82
2022/10/12 02:10:37;;;;;;;55.80;20.60;;;;;;;8.99;88.11;101303.68;640968;1294;140260;-81
2022/10/12 02:25:41;;;;;;;31.50;13.50;;;;;;;8.97;87.95;101300.34;641194;1302;140736;-82
2022/10/12 02:40:53;;;;;;;23.80;10.50;;;;;;;8.65;88.51;101296.48;640052;1295;140359;-82
2022/10/12 02:56:04;;;;;;;28.60;11.10;;;;;;;8.48;88.31;101303.99;640590;1294;140274;-81
2022/10/12 03:11:11;;;;;;;21.00;10.20;;;;;;;8.20;88.54;101303.98;641011;1300;140909;-82
2022/10/12 03:26:14;;;;;;;16.70;7.80;;;;;;;8.00;89.06;101308.83;640399;1288;139625;-81
2022/10/12 03:41:18;;;;;;;21.50;9.90;;;;;;;7.79;88.67;101323.84;641787;1294;139951;-81
2022/10/12 03:56:20;;;;;;;21.00;8.50;;;;;;;7.60;89.38;101330.37;640974;1295;141249;-83
2022/10/12 04:11:24;;;;;;;16.70;8.10;;;;;;;7.47;89.25;101342.77;641424;1288;140261;-81
2022/10/12 04:26:27;;;;;;;22.00;10.60;;;;;;;7.47;90.66;101352.88;639902;1295;139819;-82
2022/10/12 04:41:31;;;;;;;23.30;10.10;;;;;;;7.71;90.90;101354.64;640174;1295;140234;-83
2022/10/12 04:56:34;;;;;;;18.30;9.70;;;;;;;7.88;91.25;101361.45;641427;1289;139083;-82
2022/10/12 05:11:37;;;;;;;37.10;16.70;;;;;;;7.81;92.89;101357.50;640966;1295;140626;-82
2022/10/12 05:26:40;;;;;;;31.60;12.20;;;;;;;7.88;93.75;101360.02;640424;1294;139026;-82
2022/10/12 05:41:43;;;;;;;30.00;15.00;;;;;;;8.17;93.73;101377.85;640676;1297;140475;-81
2022/10/12 05:56:46;;;;;;;28.00;12.30;;;;;;;8.21;94.35;101383.48;641348;1295;140863;-82
2022/10/12 06:11:49;;;;;;;32.40;12.90;;;;;;;8.41;95.99;101384.21;641101;1310;139844;-83
2022/10/12 06:26:52;;;;;;;23.80;12.40;;;;;;;8.51;97.30;101402.33;641253;1289;140122;-82
2022/10/12 06:41:56;;;;;;;21.10;10.20;;;;;;;8.73;97.65;101418.36;640115;1302;139644;-82
2022/10/12 06:57:05;;;;;;;30.80;14.80;;;;;;;9.09;97.74;101422.04;641980;1294;140060;-82
2022/10/12 07:12:09;;;;;;;27.90;11.10;;;;;;;9.32;98.53;101425.15;640682;1296;140194;-81
2022/10/12 07:27:12;;;;;;;32.20;12.30;;;;;;;9.78;98.52;101437.19;641426;1296;140063;-82
2022/10/12 07:42:16;;;;;;;22.70;9.50;;;;;;;11.31;96.64;101441.60;642614;1302;140600;-83
2022/10/12 07:57:21;;;;;;;20.10;8.70;;;;;;;12.74;93.99;101444.80;640428;1291;140466;-82
2022/10/12 08:12:24;;;;;;;20.60;8.60;;;;;;;14.03;90.93;101441.26;641010;1295;140223;-83
2022/10/12 08:27:31;;;;;;;15.20;5.80;;;;;;;14.76;87.96;101435.67;641310;1294;139011;-83
2022/10/12 08:42:52;;;;;;;14.50;5.10;;;;;;;15.66;84.92;101430.88;640897;1290;140203;-82
2022/10/12 08:57:56;;;;;;;8.90;5.40;;;;;;;15.74;82.02;101430.52;641007;1299;140849;-82
2022/10/12 09:13:42;;;;;;;11.70;5.30;;;;;;;15.97;80.62;101436.42;640697;1295;139092;-82
2022/10/12 09:28:50;;;;;;;22.20;10.90;;;;;;;15.94;79.78;101433.45;641830;1295;140645;-82
2022/10/12 09:43:58;;;;;;;10.90;3.80;;;;;;;16.82;77.04;101430.52;641574;1294;140571;-81
2022/10/12 09:59:06;;;;;;;6.50;3.60;;;;;;;17.64;73.95;101433.49;640996;1301;139894;-81
2022/10/12 10:14:14;;;;;;;8.80;4.20;;;;;;;18.31;71.66;101424.42;645887;1293;140660;-82
2022/10/12 10:29:20;;;;;;;10.90;4.80;;;;;;;18.04;70.35;101420.98;642611;1294;140095;-82
2022/10/12 10:44:32;;;;;;;13.00;3.30;;;;;;;18.19;69.67;101421.71;646055;1299;139897;-81
2022/10/12 10:59:59;;;;;;;4.30;1.90;;;;;;;19.84;67.55;101414.80;639593;1296;139499;-81
2022/10/12 11:15:43;;;;;;;8.70;2.40;;;;;;;19.19;62.28;101409.05;639880;1289;139407;-81
2022/10/12 11:30:50;;;;;;;8.20;1.70;;;;;;;18.48;64.64;101407.44;643085;1294;141304;-81
2022/10/12 11:45:57;;;;;;;5.10;2.20;;;;;;;19.43;61.89;101404.64;641093;1296;140624;-80
2022/10/12 12:01:11;;;;;;;6.60;2.20;;;;;;;19.13;61.17;101404.90;639648;1294;139896;-80
2022/10/12 12:16:14;;;;;;;6.20;3.10;;;;;;;18.55;61.94;101408.34;639624;1301;140786;-81
2022/10/12 12:31:23;;;;;;;4.70;1.50;;;;;;;19.27;61.23;101403.09;639388;1301;139459;-81
2022/10/12 12:46:59;;;;;;;5.90;2.20;;;;;;;19.72;58.76;101401.08;639278;1294;1259880;-81
2022/10/12 13:02:23;;;;;;;6.60;3.10;;;;;;;18.69;58.70;101394.16;639541;1302;140330;-81
2022/10/12 13:18:14;;;;;;;4.00;1.90;;;;;;;20.44;56.23;101393.14;640858;1295;140067;-82
2022/10/12 13:33:59;;;;;;;;;;;;;;;21.24;54.12;101385.01;639421;1290;139995;-81
2022/10/12 13:49:20;;;;;;;4.60;1.70;;;;;;;20.22;53.05;101387.05;639949;1294;127055;-82
2022/10/12 14:04:27;;;;;;;10.50;3.60;;;;;;;18.23;56.65;101390.36;640099;1280;140183;-81
2022/10/12 14:19:30;;;;;;;36.50;19.90;;;;;;;17.90;58.04;101387.79;639938;1295;138420;-81
2022/10/12 14:34:39;;;;;;;24.90;14.90;;;;;;;17.78;59.07;101380.14;639958;1295;139631;-82
2022/10/12 14:49:45;;;;;;;9.10;5.80;;;;;;;17.58;59.75;101377.31;640218;1295;140315;-82
2022/10/12 15:04:50;;;;;;;21.30;9.20;;;;;;;17.14;61.13;101371.29;640733;1291;139437;-80
2022/10/12 15:19:54;;;;;;;26.00;13.30;;;;;;;16.89;62.69;101370.64;642208;1287;140019;-81
2022/10/12 15:34:57;;;;;;;39.20;24.50;;;;;;;16.64;64.64;101366.72;640884;1289;140156;-82
2022/10/12 15:50:01;;;;;;;69.60;37.10;;;;;;;16.49;66.40;101369.23;640987;1288;139701;-81
2022/10/12 16:05:25;;;;;;;46.90;24.30;;;;;;;15.45;68.02;101366.34;639697;1288;138724;-81
2022/10/12 16:20:31;;;;;;;66.60;31.90;;;;;;;14.30;70.19;101361.34;640636;1288;140942;-81
2022/10/12 16:35:38;;;;;;;118.30;48.50;;;;;;;13.64;72.60;101357.82;640944;1295;139319;-82
2022/10/12 16:50:42;;;;;;;121.90;54.90;;;;;;;13.26;74.05;101362.86;641830;1295;140772;-83
2022/10/12 17:05:46;;;;;;;123.40;53.40;;;;;;;12.80;75.14;101365.88;640333;1311;141359;-81
2022/10/12 17:20:49;;;;;;;54.60;31.80;;;;;;;12.32;76.44;101377.02;641245;1294;141291;-82
2022/10/12 17:35:55;;;;;;;73.90;34.60;;;;;;;11.97;77.93;101380.60;641052;1289;140536;-81
2022/10/12 17:51:08;;;;;;;120.60;61.10;;;;;;;11.58;78.59;101380.86;640059;1294;139878;-83
2022/10/12 18:06:19;;;;;;;35.60;18.70;;;;;;;11.19;79.94;101374.92;642352;1288;141856;-82
2022/10/12 18:21:25;;;;;;;71.30;35.00;;;;;;;10.93;81.42;101370.88;642429;1295;140537;-82
2022/10/12 18:36:29;;;;;;;53.90;28.80;;;;;;;10.73;82.45;101377.38;640534;1288;140666;-81
2022/10/12 18:51:36;;;;;;;60.80;27.40;;;;;;;10.41;82.65;101382.09;639800;1291;139909;-81
2022/10/12 19:06:41;;;;;;;108.80;44.50;;;;;;;10.12;83.08;101385.46;640346;1295;140472;-81
2022/10/12 19:21:46;;;;;;;109.10;45.60;;;;;;;9.84;83.82;101390.80;641520;1291;141266;-81
2022/10/12 19:36:49;;;;;;;132.30;45.50;;;;;;;9.64;84.73;101392.49;641636;1288;139392;-81
2022/10/12 19:51:52;;;;;;;106.40;42.30;;;;;;;9.45;85.15;101387.46;642363;1288;140846;-81
2022/10/12 20:26:09;;;;;;;47.00;24.30;;;;;;;8.97;85.69;101385.48;643255;1298;139262;-81
2022/10/12 20:41:16;;;;;;;68.30;32.00;;;;;;;8.78;86.34;101378.83;642520;1293;140272;-80
2022/10/12 20:56:19;;;;;;;50.80;26.20;;;;;;;8.71;86.02;101380.52;640958;1295;139950;-81
2022/10/12 21:11:24;;;;;;;49.00;24.50;;;;;;;8.52;86.67;101385.00;640619;1290;139916;-81
2022/10/12 21:26:29;;;;;;;55.40;25.60;;;;;;;8.32;87.40;101388.59;641930;1291;142411;-80
2022/10/12 21:41:32;;;;;;;62.20;29.30;;;;;;;8.17;87.65;101399.45;639850;1291;139551;-81
2022/10/12 21:56:36;;;;;;;48.10;24.50;;;;;;;8.05;88.70;101407.67;640105;1297;141153;-80
2022/10/12 22:11:39;;;;;;;54.60;27.20;;;;;;;7.97;88.95;101404.30;642677;1289;139316;-81
2022/10/12 22:26:45;;;;;;;53.20;25.10;;;;;;;7.86;88.96;101399.71;644196;1287;139932;-81
2022/10/12 22:41:48;;;;;;;91.50;42.00;;;;;;;7.61;88.28;101400.97;641082;1288;139023;-80
2022/10/12 22:56:51;;;;;;;73.60;36.90;;;;;;;7.43;87.73;101395.60;641939;1288;140341;-81
2022/10/12 23:11:54;;;;;;;79.70;36.80;;;;;;;7.19;87.27;101392.05;641010;1288;139598;-81
2022/10/12 23:26:57;;;;;;;72.90;33.10;;;;;;;7.05;87.10;101394.89;642110;1288;140748;-82
2022/10/12 23:42:01;;;;;;;64.10;33.20;;;;;;;6.79;87.41;101390.60;642659;1291;140192;-81
2022/10/12 23:57:04;;;;;;;53.40;25.60;;;;;;;6.68;87.20;101397.61;641095;1287;141540;-81
